Back to top

Gillette, WY weather

Gillette-Campbell County Airport (AMOS), Gillette, WY: 8/18/2022 03:53
Visibility10 statute milesclear sky
View 7-Day Forecast
Area Summary
Sky/CloudsSky Clear
Weather [last 24 hours]None
Pressure30.19 in.Hg (1022 hPa)
Dew Point46 °F (7.8 °C)
Relative Humidity80.1 %
Temperature52 °F (11.1 °C)red thermometer
Reading TimeMinimum to Maximum Temperature
6-hr ending 8/17@23:5364.9 °F to 84.9 °F (18.3 °C to 29.4 °C)
6-hr ending 8/17@17:5384 °F to 93.9 °F (28.9 °C to 34.4 °C)
6-hr ending 8/17@11:5370 °F to 91 °F (21.1 °C to 32.8 °C)
6-hr ending 8/17@05:5366 °F to 71.1 °F (18.9 °C to 21.7 °C)
24-hr ending 8/18@00:5364 °F to 93.9 °F (17.8 °C to 34.4 °C)
Wind0 MPH (0 KT) green arrow pointing at 0 degrees
Wind FromNorth (000 Degrees)
Twilight Begins05:38Sunshine Yesterday
Sunrise06:09N/A
Sunset20:02
Twilight Ends20:33
METARKGCC 180953Z AUTO 00000KT 10SM CLR 11/08 A3019 RMK AO2 SLP177 T01110078
Tags: